Time;durP1;ratioP1;P1;durP2;ratioP2;P2;SDS_P1;SDS_P2;PMS_P1;PMS_P2;Temp;Humidity;BMP_temperature;BMP_pressure;BME280_temperature;BME280_humidity;BME280_pressure;Samples;Min_cycle;Max_cycle;Signal;HPM_P1;HPM_P2
2022/07/24 00:00:39;;;;;;;;;;;19.00;99.90;;;;;;5031727;28;19925;-68
2022/07/24 00:03:05;;;;;;;;;;;19.00;99.90;;;;;;5032187;28;19933;-68
2022/07/24 00:05:33;;;;;;;;;;;18.90;99.90;;;;;;5026409;28;19929;-68
2022/07/24 00:08:00;;;;;;;;;;;18.80;99.90;;;;;;5031144;28;19925;-68
2022/07/24 00:10:27;;;;;;;;;;;18.80;99.90;;;;;;5037344;28;19925;-68
2022/07/24 00:12:54;;;;;;;;;;;18.70;99.90;;;;;;5034742;28;19928;-68
2022/07/24 00:15:21;;;;;;;;;;;18.60;99.90;;;;;;5028182;28;20343;-69
2022/07/24 00:17:48;;;;;;;;;;;18.60;99.90;;;;;;5014762;28;19929;-68
2022/07/24 00:20:14;;;;;;;;;;;18.50;99.90;;;;;;5020984;28;19929;-68
2022/07/24 00:22:43;;;;;;;;;;;18.50;99.90;;;;;;5024349;28;19932;-68
2022/07/24 00:25:10;;;;;;;;;;;18.50;99.90;;;;;;5029759;28;19939;-68
2022/07/24 00:27:36;;;;;;;;;;;18.40;99.90;;;;;;5025211;28;19929;-68
2022/07/24 00:30:04;;;;;;;;;;;18.40;99.90;;;;;;5030730;28;19925;-68
2022/07/24 00:32:30;;;;;;;;;;;18.50;99.90;;;;;;5033999;28;19925;-68
2022/07/24 00:34:57;;;;;;;;;;;18.50;99.90;;;;;;5031473;28;19925;-68
2022/07/24 00:37:24;;;;;;;;;;;18.50;99.90;;;;;;5029107;28;19925;-68
2022/07/24 00:39:52;;;;;;;;;;;18.40;99.90;;;;;;5008848;28;19925;-68
2022/07/24 00:42:19;;;;;;;;;;;18.40;99.90;;;;;;5021094;28;19990;-68
2022/07/24 00:44:45;;;;;;;;;;;18.40;99.90;;;;;;5025537;28;19933;-68
2022/07/24 00:47:12;;;;;;;;;;;18.30;99.90;;;;;;5030597;28;20004;-68
2022/07/24 00:49:39;;;;;;;;;;;18.30;99.90;;;;;;5024629;28;19925;-68
2022/07/24 00:52:06;;;;;;;;;;;18.30;99.90;;;;;;5044742;28;19929;-68
2022/07/24 00:54:33;;;;;;;;;;;18.40;99.90;;;;;;5035571;28;19929;-68
2022/07/24 00:57:01;;;;;;;;;;;18.40;99.90;;;;;;5025220;28;19933;-68
2022/07/24 00:59:28;;;;;;;;;;;18.40;99.90;;;;;;5026256;28;19929;-68
2022/07/24 01:01:55;;;;;;;;;;;18.40;99.90;;;;;;5025598;28;19925;-68
2022/07/24 01:04:22;;;;;;;;;;;18.30;99.90;;;;;;5033168;28;20375;-68
2022/07/24 01:06:49;;;;;;;;;;;18.30;99.90;;;;;;5033995;28;19925;-68
2022/07/24 01:09:16;;;;;;;;;;;18.30;99.90;;;;;;5027411;28;19924;-68
2022/07/24 01:11:43;;;;;;;;;;;18.30;99.90;;;;;;5028760;28;19925;-68
2022/07/24 01:14:12;;;;;;;;;;;18.30;99.90;;;;;;5042189;28;19925;-68
2022/07/24 01:16:38;;;;;;;;;;;18.40;99.90;;;;;;5046433;28;20509;-68
2022/07/24 01:19:05;;;;;;;;;;;18.40;99.90;;;;;;5027174;28;19932;-68
2022/07/24 01:21:34;;;;;;;;;;;18.40;99.90;;;;;;5029120;28;19929;-68
2022/07/24 01:24:01;;;;;;;;;;;18.30;99.90;;;;;;5028163;28;20459;-68
2022/07/24 01:26:27;;;;;;;;;;;18.30;99.90;;;;;;5014487;28;19925;-68
2022/07/24 01:28:54;;;;;;;;;;;18.30;99.90;;;;;;5028836;28;19925;-68
2022/07/24 01:31:21;;;;;;;;;;;18.40;99.90;;;;;;5040547;28;19932;-68
2022/07/24 01:33:48;;;;;;;;;;;18.30;99.90;;;;;;5028945;28;20424;-68
2022/07/24 01:36:15;;;;;;;;;;;18.30;99.90;;;;;;5043073;28;19925;-68
2022/07/24 01:38:43;;;;;;;;;;;18.20;99.90;;;;;;5023961;28;19979;-68
2022/07/24 01:41:10;;;;;;;;;;;18.10;99.90;;;;;;5028082;28;19925;-68
2022/07/24 01:43:37;;;;;;;;;;;18.10;99.90;;;;;;5024600;28;19929;-68
2022/07/24 01:46:03;;;;;;;;;;;18.10;99.90;;;;;;5031232;28;19932;-69
2022/07/24 01:48:30;;;;;;;;;;;18.10;99.90;;;;;;5024228;28;20324;-68
2022/07/24 01:50:57;;;;;;;;;;;18.20;99.90;;;;;;5029366;28;20372;-68
2022/07/24 01:53:24;;;;;;;;;;;18.10;99.90;;;;;;5041827;28;20340;-68
2022/07/24 01:55:53;;;;;;;;;;;18.20;99.90;;;;;;5014263;28;19925;-68
2022/07/24 01:58:19;;;;;;;;;;;18.20;99.90;;;;;;5043513;28;19925;-68
2022/07/24 02:00:47;;;;;;;;;;;18.40;99.90;;;;;;5025278;28;19937;-68
2022/07/24 02:03:13;;;;;;;;;;;18.40;99.90;;;;;;5029711;28;19948;-68
2022/07/24 02:05:40;;;;;;;;;;;18.30;99.90;;;;;;5024141;28;19926;-68
2022/07/24 02:08:07;;;;;;;;;;;18.20;99.90;;;;;;5052667;28;19928;-68
2022/07/24 02:10:34;;;;;;;;;;;18.30;99.90;;;;;;5047719;28;19937;-68
2022/07/24 02:13:02;;;;;;;;;;;18.20;99.90;;;;;;5032985;28;19929;-68
2022/07/24 02:15:29;;;;;;;;;;;18.20;99.90;;;;;;5029973;28;20396;-68
2022/07/24 02:17:58;;;;;;;;;;;18.10;99.90;;;;;;5033511;28;19925;-69
2022/07/24 02:20:25;;;;;;;;;;;18.00;99.90;;;;;;5023715;28;20384;-69
2022/07/24 02:22:52;;;;;;;;;;;18.00;99.90;;;;;;5028376;28;20428;-68
2022/07/24 02:25:18;;;;;;;;;;;18.00;99.90;;;;;;5027876;28;20380;-68
2022/07/24 02:27:45;;;;;;;;;;;18.00;99.90;;;;;;5031962;28;19925;-68
2022/07/24 02:30:14;;;;;;;;;;;18.20;99.90;;;;;;5046433;28;20307;-68
2022/07/24 02:32:41;;;;;;;;;;;18.10;99.90;;;;;;5027338;28;20277;-68
2022/07/24 02:35:08;;;;;;;;;;;18.20;99.90;;;;;;5026073;28;20470;-68
2022/07/24 02:37:36;;;;;;;;;;;18.20;99.90;;;;;;5025111;28;19925;-69
2022/07/24 02:40:03;;;;;;;;;;;18.10;99.90;;;;;;5026573;28;19933;-68
2022/07/24 02:42:30;;;;;;;;;;;18.10;99.90;;;;;;5031118;28;19931;-68
2022/07/24 02:44:56;;;;;;;;;;;18.20;99.90;;;;;;5028383;28;20373;-68
2022/07/24 02:47:25;;;;;;;;;;;18.10;99.90;;;;;;5040294;28;19947;-68
2022/07/24 02:49:51;;;;;;;;;;;18.10;99.90;;;;;;5042324;28;19928;-68
2022/07/24 02:52:18;;;;;;;;;;;18.10;99.90;;;;;;5032885;28;19990;-68
2022/07/24 02:54:45;;;;;;;;;;;18.10;99.90;;;;;;5023634;28;20282;-68
2022/07/24 02:57:12;;;;;;;;;;;18.10;99.90;;;;;;5039593;28;19939;-68
2022/07/24 02:59:38;;;;;;;;;;;18.20;99.90;;;;;;5028984;28;19932;-68
2022/07/24 03:02:05;;;;;;;;;;;18.20;99.90;;;;;;5027207;28;19925;-68
2022/07/24 03:04:34;;;;;;;;;;;18.20;99.90;;;;;;5028411;28;19925;-68
2022/07/24 03:07:00;;;;;;;;;;;18.10;99.90;;;;;;5048355;28;19925;-67
2022/07/24 03:09:27;;;;;;;;;;;18.00;99.90;;;;;;5029635;28;19936;-68
2022/07/24 03:11:54;;;;;;;;;;;17.90;99.90;;;;;;5029140;28;19924;-68
2022/07/24 03:14:21;;;;;;;;;;;17.90;99.90;;;;;;5033945;28;19979;-68
2022/07/24 03:16:47;;;;;;;;;;;18.00;99.90;;;;;;5032833;28;19936;-68
2022/07/24 03:19:14;;;;;;;;;;;17.90;99.90;;;;;;5027589;28;19974;-68
2022/07/24 03:21:42;;;;;;;;;;;17.90;99.90;;;;;;5048059;28;19925;-68
2022/07/24 03:24:09;;;;;;;;;;;17.90;99.90;;;;;;5026580;28;20316;-68
2022/07/24 03:26:36;;;;;;;;;;;17.90;99.90;;;;;;5047925;28;19930;-68
2022/07/24 03:29:03;;;;;;;;;;;17.80;99.90;;;;;;5025204;28;19979;-68
2022/07/24 03:31:29;;;;;;;;;;;17.80;99.90;;;;;;5026748;28;19924;-68
2022/07/24 03:33:56;;;;;;;;;;;17.80;99.90;;;;;;5036529;28;19929;-68
2022/07/24 03:36:23;;;;;;;;;;;17.70;99.90;;;;;;5030515;28;19955;-68
2022/07/24 03:38:51;;;;;;;;;;;17.70;99.90;;;;;;5028063;28;20400;-69
2022/07/24 03:41:18;;;;;;;;;;;17.70;99.90;;;;;;5031428;28;19929;-68
2022/07/24 03:43:45;;;;;;;;;;;17.80;99.90;;;;;;5030108;28;19925;-68
2022/07/24 03:46:11;;;;;;;;;;;17.90;99.90;;;;;;5021888;28;19930;-68
2022/07/24 03:48:38;;;;;;;;;;;17.80;99.90;;;;;;5028461;28;20420;-68
2022/07/24 03:51:05;;;;;;;;;;;17.80;99.90;;;;;;5045116;28;20376;-68
2022/07/24 03:53:32;;;;;;;;;;;17.80;99.90;;;;;;5032027;28;19924;-68
2022/07/24 03:56:00;;;;;;;;;;;17.90;99.90;;;;;;5046126;28;19944;-68
2022/07/24 03:58:27;;;;;;;;;;;17.90;99.90;;;;;;5015648;28;19932;-68
2022/07/24 04:00:54;;;;;;;;;;;17.90;99.90;;;;;;5040766;28;19971;-69
2022/07/24 04:03:20;;;;;;;;;;;17.90;99.90;;;;;;5025116;28;19925;-68
2022/07/24 04:05:47;;;;;;;;;;;17.90;99.90;;;;;;5031614;28;19929;-68
2022/07/24 04:08:14;;;;;;;;;;;17.90;99.90;;;;;;5027950;28;20471;-68
2022/07/24 04:10:41;;;;;;;;;;;18.00;99.90;;;;;;5025111;28;19925;-68
2022/07/24 04:13:09;;;;;;;;;;;17.90;99.90;;;;;;5029134;28;19929;-68
2022/07/24 04:15:36;;;;;;;;;;;18.00;99.90;;;;;;5030940;28;19925;-68
2022/07/24 04:18:02;;;;;;;;;;;18.00;99.90;;;;;;5031545;28;19955;-68
2022/07/24 04:20:29;;;;;;;;;;;18.00;99.90;;;;;;5024965;28;20347;-68
2022/07/24 04:22:56;;;;;;;;;;;18.00;99.90;;;;;;5031656;28;19929;-68
2022/07/24 04:25:23;;;;;;;;;;;18.00;99.90;;;;;;5025724;28;19932;-68
2022/07/24 04:27:50;;;;;;;;;;;18.00;99.90;;;;;;5033767;28;19929;-68
2022/07/24 04:30:18;;;;;;;;;;;17.90;99.90;;;;;;5027323;28;19992;-68
2022/07/24 04:32:45;;;;;;;;;;;17.80;99.90;;;;;;5026085;28;19925;-68
2022/07/24 04:35:12;;;;;;;;;;;17.70;99.90;;;;;;5029415;28;19925;-68
2022/07/24 04:37:38;;;;;;;;;;;17.60;99.90;;;;;;5025740;28;19933;-68
2022/07/24 04:40:05;;;;;;;;;;;17.60;99.90;;;;;;5031834;28;19932;-68
2022/07/24 04:42:32;;;;;;;;;;;17.50;99.90;;;;;;5029792;28;19925;-68
2022/07/24 04:44:59;;;;;;;;;;;17.50;99.90;;;;;;5030864;28;19929;-68
2022/07/24 04:47:27;;;;;;;;;;;17.50;99.90;;;;;;5036492;28;19926;-67
2022/07/24 04:49:54;;;;;;;;;;;17.40;99.90;;;;;;5047336;28;19925;-68
2022/07/24 04:52:21;;;;;;;;;;;17.40;99.90;;;;;;5028272;28;20363;-74
2022/07/24 04:54:48;;;;;;;;;;;17.40;99.90;;;;;;5031033;28;19999;-70
2022/07/24 04:57:14;;;;;;;;;;;17.50;99.90;;;;;;5040263;28;19924;-70
2022/07/24 04:59:41;;;;;;;;;;;17.50;99.90;;;;;;5015943;28;19960;-70
2022/07/24 05:02:08;;;;;;;;;;;17.60;99.90;;;;;;5038309;28;19937;-68
2022/07/24 05:04:36;;;;;;;;;;;17.70;99.90;;;;;;5024291;28;19925;-69
2022/07/24 05:07:03;;;;;;;;;;;17.80;99.90;;;;;;5022605;28;19925;-69
2022/07/24 05:09:30;;;;;;;;;;;17.80;99.90;;;;;;5038360;28;19929;-69
2022/07/24 05:11:57;;;;;;;;;;;17.90;99.90;;;;;;5024785;28;20023;-69
2022/07/24 05:14:24;;;;;;;;;;;18.00;99.90;;;;;;5028227;28;19925;-69
2022/07/24 05:16:51;;;;;;;;;;;18.10;99.90;;;;;;5041509;28;20462;-70
2022/07/24 05:19:17;;;;;;;;;;;18.30;99.90;;;;;;5018085;28;19925;-70
2022/07/24 05:21:45;;;;;;;;;;;18.30;99.90;;;;;;5023696;28;19925;-70
2022/07/24 05:24:12;;;;;;;;;;;18.50;99.90;;;;;;5019939;28;19933;-70
2022/07/24 05:26:39;;;;;;;;;;;18.50;99.90;;;;;;5018259;28;19925;-70
2022/07/24 05:29:06;;;;;;;;;;;18.60;99.90;;;;;;5020378;28;19925;-69
2022/07/24 05:31:33;;;;;;;;;;;18.60;99.90;;;;;;5018790;28;20312;-69
2022/07/24 05:34:01;;;;;;;;;;;18.60;99.90;;;;;;5012556;28;19929;-69
2022/07/24 05:36:28;;;;;;;;;;;18.70;99.90;;;;;;5021868;28;19968;-69
2022/07/24 05:38:57;;;;;;;;;;;18.70;99.90;;;;;;5023452;28;19924;-70
2022/07/24 05:41:23;;;;;;;;;;;18.80;99.90;;;;;;5032170;28;19925;-70
2022/07/24 05:43:50;;;;;;;;;;;18.90;99.90;;;;;;5028773;28;19928;-71
2022/07/24 05:46:17;;;;;;;;;;;18.90;99.90;;;;;;5033964;28;19932;-70
2022/07/24 05:48:44;;;;;;;;;;;19.00;99.90;;;;;;5029919;28;19924;-71
2022/07/24 05:51:11;;;;;;;;;;;19.10;99.90;;;;;;5042303;28;19929;-71
2022/07/24 05:53:38;;;;;;;;;;;19.10;99.90;;;;;;5048569;28;19929;-71
2022/07/24 05:56:06;;;;;;;;;;;19.20;99.90;;;;;;5048089;28;19924;-71
2022/07/24 05:58:33;;;;;;;;;;;19.30;99.90;;;;;;5043203;28;19925;-71
2022/07/24 06:01:00;;;;;;;;;;;19.30;99.90;;;;;;5024396;28;20088;-72
2022/07/24 06:03:27;;;;;;;;;;;19.40;99.90;;;;;;5038481;28;19972;-72
2022/07/24 06:05:53;;;;;;;;;;;19.60;99.90;;;;;;5036423;28;19932;-71
2022/07/24 06:08:20;;;;;;;;;;;19.70;99.90;;;;;;5032871;28;19929;-71
2022/07/24 06:10:47;;;;;;;;;;;19.80;99.90;;;;;;5027090;28;19929;-73
2022/07/24 06:13:15;;;;;;;;;;;19.90;99.90;;;;;;5030639;28;19929;-77
2022/07/24 06:15:42;;;;;;;;;;;20.00;99.90;;;;;;5028623;28;19959;-71
2022/07/24 06:18:09;;;;;;;;;;;20.10;99.90;;;;;;5024357;28;19929;-71
2022/07/24 06:20:36;;;;;;;;;;;20.20;99.90;;;;;;5023576;28;20384;-73
2022/07/24 06:23:02;;;;;;;;;;;20.30;99.90;;;;;;5023430;28;19925;-74
2022/07/24 06:25:29;;;;;;;;;;;20.40;99.90;;;;;;5025958;28;19928;-74
2022/07/24 06:27:57;;;;;;;;;;;20.50;99.90;;;;;;5024425;28;19925;-74
2022/07/24 06:30:25;;;;;;;;;;;20.60;99.90;;;;;;5023760;28;19925;-74
2022/07/24 06:32:53;;;;;;;;;;;20.60;99.90;;;;;;5018642;28;19971;-74
2022/07/24 06:35:20;;;;;;;;;;;20.70;99.90;;;;;;5024367;28;19929;-72
2022/07/24 06:37:47;;;;;;;;;;;20.70;99.90;;;;;;5023414;28;19929;-71
2022/07/24 06:40:15;;;;;;;;;;;20.80;99.90;;;;;;5028354;28;19925;-71
2022/07/24 06:42:41;;;;;;;;;;;20.80;99.90;;;;;;5019195;28;19930;-72
2022/07/24 06:45:08;;;;;;;;;;;20.80;99.90;;;;;;5030106;28;19932;-72
2022/07/24 06:47:37;;;;;;;;;;;21.00;99.90;;;;;;5022387;28;20020;-72
2022/07/24 06:50:04;;;;;;;;;;;21.10;99.90;;;;;;5026626;28;20363;-72
2022/07/24 06:52:31;;;;;;;;;;;21.10;99.90;;;;;;5024396;28;20447;-71
2022/07/24 06:54:58;;;;;;;;;;;21.20;99.90;;;;;;5045481;28;19925;-72
2022/07/24 06:57:25;;;;;;;;;;;21.40;99.90;;;;;;5031932;28;19937;-72
2022/07/24 06:59:52;;;;;;;;;;;21.30;99.90;;;;;;5028130;28;19925;-72
2022/07/24 07:02:18;;;;;;;;;;;21.40;99.90;;;;;;5028484;28;19929;-71
2022/07/24 07:04:47;;;;;;;;;;;21.40;99.90;;;;;;5025352;28;19979;-72
2022/07/24 07:07:14;;;;;;;;;;;21.40;99.90;;;;;;5030575;28;19972;-71
2022/07/24 07:09:41;;;;;;;;;;;21.50;99.90;;;;;;5022238;28;19929;-71
2022/07/24 07:12:09;;;;;;;;;;;21.60;99.90;;;;;;5009637;28;19925;-72
2022/07/24 07:14:35;;;;;;;;;;;21.70;99.90;;;;;;5011279;28;19929;-71
2022/07/24 07:17:02;;;;;;;;;;;21.80;99.90;;;;;;5019841;28;19925;-71
2022/07/24 07:19:29;;;;;;;;;;;21.80;99.90;;;;;;5023663;28;19925;-71
2022/07/24 07:21:58;;;;;;;;;;;21.90;99.90;;;;;;5020467;28;19932;-71
2022/07/24 07:24:24;;;;;;;;;;;22.10;99.90;;;;;;5021999;28;20320;-71
2022/07/24 07:26:51;;;;;;;;;;;22.10;99.90;;;;;;5024313;28;20006;-71
2022/07/24 07:29:18;;;;;;;;;;;22.30;99.90;;;;;;5022778;28;19929;-72
2022/07/24 07:31:45;;;;;;;;;;;22.40;99.90;;;;;;5018684;28;19925;-71
2022/07/24 07:34:12;;;;;;;;;;;22.50;99.90;;;;;;5028215;28;19928;-71
2022/07/24 07:36:38;;;;;;;;;;;22.60;99.90;;;;;;5027693;28;19925;-71
2022/07/24 07:39:07;;;;;;;;;;;22.70;99.90;;;;;;5042089;28;20392;-71
2022/07/24 07:41:33;;;;;;;;;;;22.80;99.90;;;;;;5025192;28;19933;-71
2022/07/24 07:44:01;;;;;;;;;;;22.80;99.90;;;;;;5025689;28;19929;-71
2022/07/24 07:46:27;;;;;;;;;;;22.90;99.90;;;;;;5020929;28;19925;-71
2022/07/24 07:48:55;;;;;;;;;;;22.90;99.90;;;;;;5024840;28;19925;-71
2022/07/24 07:51:21;;;;;;;;;;;23.10;99.90;;;;;;5023699;28;19929;-70
2022/07/24 07:53:48;;;;;;;;;;;23.20;99.90;;;;;;5028193;28;19978;-70
2022/07/24 07:56:17;;;;;;;;;;;23.30;99.90;;;;;;5022037;28;19967;-71
2022/07/24 07:58:44;;;;;;;;;;;23.40;99.90;;;;;;5024134;28;19926;-71
2022/07/24 08:01:10;;;;;;;;;;;23.40;99.90;;;;;;5025212;28;19926;-71
2022/07/24 08:03:37;;;;;;;;;;;23.50;99.90;;;;;;5023928;28;19925;-71
2022/07/24 08:06:04;;;;;;;;;;;23.50;99.90;;;;;;5041334;28;20345;-71
2022/07/24 08:08:31;;;;;;;;;;;23.60;99.90;;;;;;5036764;28;20017;-71
2022/07/24 08:10:58;;;;;;;;;;;23.80;99.90;;;;;;5024819;28;19933;-71
2022/07/24 08:13:27;;;;;;;;;;;23.90;99.90;;;;;;5027966;28;19932;-71
2022/07/24 08:15:53;;;;;;;;;;;24.10;99.90;;;;;;5029651;28;19929;-71
2022/07/24 08:18:20;;;;;;;;;;;24.10;99.90;;;;;;5019966;28;19925;-71
2022/07/24 08:20:47;;;;;;;;;;;24.10;99.90;;;;;;5017677;28;19932;-71
2022/07/24 08:23:14;;;;;;;;;;;24.10;99.90;;;;;;5020222;28;19931;-71
2022/07/24 08:25:41;;;;;;;;;;;24.30;99.90;;;;;;5019270;28;19925;-71
2022/07/24 08:28:08;;;;;;;;;;;24.40;99.90;;;;;;5020584;28;19983;-71
2022/07/24 08:30:36;;;;;;;;;;;24.40;99.90;;;;;;5020503;28;20412;-71
2022/07/24 08:33:03;;;;;;;;;;;24.50;99.90;;;;;;5015675;28;19929;-71
2022/07/24 08:35:30;;;;;;;;;;;24.60;99.90;;;;;;5015531;28;19925;-70
2022/07/24 08:37:56;;;;;;;;;;;24.60;99.90;;;;;;5033827;28;20008;-70
2022/07/24 08:40:23;;;;;;;;;;;24.70;99.90;;;;;;5024514;28;19968;-68
2022/07/24 08:42:50;;;;;;;;;;;24.80;99.90;;;;;;5019006;28;19925;-69
2022/07/24 08:45:17;;;;;;;;;;;24.80;99.90;;;;;;5043210;28;19925;-68
2022/07/24 08:47:45;;;;;;;;;;;24.80;99.90;;;;;;5028849;28;19925;-69
2022/07/24 08:50:12;;;;;;;;;;;25.00;99.90;;;;;;5038051;28;19929;-69
2022/07/24 08:52:39;;;;;;;;;;;25.10;99.90;;;;;;5032657;28;19925;-69
2022/07/24 08:55:06;;;;;;;;;;;25.00;99.90;;;;;;5036616;28;19973;-69
2022/07/24 08:57:33;;;;;;;;;;;25.10;99.90;;;;;;5022258;28;19929;-69
2022/07/24 09:00:00;;;;;;;;;;;25.20;99.90;;;;;;5024002;28;19929;-69
2022/07/24 09:02:27;;;;;;;;;;;25.30;99.90;;;;;;5024174;28;19988;-69
2022/07/24 09:05:00;;;;;;;;;;;25.40;99.90;;;;;;5033040;28;19979;-68
2022/07/24 09:07:28;;;;;;;;;;;25.50;99.90;;;;;;5021728;28;19932;-69
2022/07/24 09:09:59;;;;;;;;;;;25.60;99.90;;;;;;5033316;28;19947;-69
2022/07/24 09:12:25;;;;;;;;;;;25.70;99.90;;;;;;5030872;28;19932;-69
2022/07/24 09:14:52;;;;;;;;;;;25.90;99.90;;;;;;5022985;28;19929;-69
2022/07/24 09:17:20;;;;;;;;;;;26.00;99.90;;;;;;5029286;28;19932;-69
2022/07/24 09:19:48;;;;;;;;;;;26.10;99.90;;;;;;5022214;28;20331;-69
2022/07/24 09:22:24;;;;;;;;;;;25.90;99.90;;;;;;5029224;28;20347;-70
2022/07/24 09:25:03;;;;;;;;;;;26.00;99.90;;;;;;5028741;28;19932;-69
2022/07/24 09:27:32;;;;;;;;;;;26.10;99.90;;;;;;5023481;28;20271;-69
2022/07/24 09:29:59;;;;;;;;;;;26.20;99.90;;;;;;5024699;28;19929;-69
2022/07/24 09:32:26;;;;;;;;;;;26.10;99.90;;;;;;5017411;28;19940;-69
2022/07/24 09:34:53;;;;;;;;;;;26.10;99.90;;;;;;5019919;28;19931;-69
2022/07/24 09:37:22;;;;;;;;;;;26.20;99.90;;;;;;5024247;28;19987;-69
2022/07/24 09:39:49;;;;;;;;;;;26.30;99.90;;;;;;5040275;28;20423;-69
2022/07/24 09:42:17;;;;;;;;;;;26.30;99.90;;;;;;5034739;28;19925;-69
2022/07/24 09:44:44;;;;;;;;;;;26.30;99.90;;;;;;5022709;28;19925;-69
2022/07/24 09:47:11;;;;;;;;;;;26.40;99.90;;;;;;5025460;28;19925;-69
2022/07/24 09:49:39;;;;;;;;;;;26.50;99.90;;;;;;5041087;28;19925;-69
2022/07/24 09:52:07;;;;;;;;;;;26.80;99.90;;;;;;5026508;28;19929;-69
2022/07/24 09:54:37;;;;;;;;;;;26.80;99.90;;;;;;5026977;28;20274;-69
2022/07/24 09:57:15;;;;;;;;;;;26.90;99.90;;;;;;5021431;28;20364;-70
2022/07/24 09:59:43;;;;;;;;;;;27.00;99.90;;;;;;5042172;28;19928;-69
2022/07/24 10:02:13;;;;;;;;;;;27.10;99.90;;;;;;5016509;28;20379;-71
2022/07/24 10:04:42;;;;;;;;;;;27.20;99.90;;;;;;5022357;28;20510;-71
2022/07/24 10:07:10;;;;;;;;;;;27.30;99.90;;;;;;5036276;28;20309;-70
2022/07/24 10:09:41;;;;;;;;;;;27.40;99.90;;;;;;5041546;28;19931;-71
2022/07/24 10:12:11;;;;;;;;;;;27.40;99.90;;;;;;5022142;28;19925;-71
2022/07/24 10:14:39;;;;;;;;;;;27.20;99.90;;;;;;5037238;28;19972;-71
2022/07/24 10:17:07;;;;;;;;;;;27.20;99.90;;;;;;5023332;28;19929;-71
2022/07/24 10:19:38;;;;;;;;;;;27.20;99.90;;;;;;5027206;28;19925;-70
2022/07/24 10:22:09;;;;;;;;;;;27.20;99.90;;;;;;5025004;28;20405;-71
2022/07/24 10:24:57;;;;;;;;;;;27.10;99.90;;;;;;5030009;28;19925;-71
2022/07/24 10:27:26;;;;;;;;;;;27.20;99.90;;;;;;5024245;28;19932;-71
2022/07/24 10:29:53;;;;;;;;;;;27.30;99.90;;;;;;5015199;28;19929;-71
2022/07/24 10:32:20;;;;;;;;;;;27.40;99.90;;;;;;5043201;28;20371;-71
2022/07/24 10:34:48;;;;;;;;;;;27.60;99.90;;;;;;5029446;28;19948;-71
2022/07/24 10:37:20;;;;;;;;;;;27.60;99.90;;;;;;5044465;28;20339;-71
2022/07/24 10:39:51;;;;;;;;;;;27.80;99.90;;;;;;5042141;28;20388;-71
2022/07/24 10:42:19;;;;;;;;;;;27.90;99.90;;;;;;5028965;28;20026;-71
2022/07/24 10:44:45;;;;;;;;;;;27.80;99.90;;;;;;5042416;28;20547;-71
2022/07/24 10:47:13;;;;;;;;;;;27.80;99.90;;;;;;5042021;28;20353;-71
2022/07/24 10:49:42;;;;;;;;;;;27.90;99.90;;;;;;5029187;28;19925;-70
2022/07/24 10:52:09;;;;;;;;;;;28.00;99.90;;;;;;5035233;28;19931;-70
2022/07/24 10:54:36;;;;;;;;;;;28.10;99.90;;;;;;5031558;28;19925;-71
2022/07/24 10:57:03;;;;;;;;;;;28.10;99.90;;;;;;5026544;28;19929;-71
2022/07/24 10:59:35;;;;;;;;;;;28.00;99.90;;;;;;5032657;28;19991;-70
2022/07/24 11:02:21;;;;;;;;;;;28.10;99.90;;;;;;5031598;28;19994;-70
2022/07/24 11:04:48;;;;;;;;;;;28.30;99.90;;;;;;5030798;28;19932;-70
2022/07/24 11:07:15;;;;;;;;;;;28.20;99.90;;;;;;5030882;28;20331;-71
2022/07/24 11:09:54;;;;;;;;;;;28.30;99.90;;;;;;5031015;28;19925;-70
2022/07/24 11:12:27;;;;;;;;;;;28.40;99.90;;;;;;5026423;28;20438;-71
2022/07/24 11:15:53;;;;;;;;;;;28.40;99.90;;;;;;5020310;28;19936;-71
2022/07/24 11:17:45;;;;;;;;;;;28.60;99.90;;;;;;5030353;28;19968;-71
2022/07/24 11:20:13;;;;;;;;;;;28.70;99.90;;;;;;5034660;28;19925;-71
2022/07/24 11:22:48;;;;;;;;;;;28.80;99.90;;;;;;5032172;28;20378;-71
2022/07/24 11:25:16;;;;;;;;;;;28.90;99.90;;;;;;5023910;28;19940;-71
2022/07/24 11:27:58;;;;;;;;;;;29.20;99.90;;;;;;5026276;28;19936;-71
2022/07/24 11:30:27;;;;;;;;;;;29.10;99.90;;;;;;5025443;28;19924;-71
2022/07/24 11:32:54;;;;;;;;;;;29.20;99.90;;;;;;5033412;28;19971;-71
2022/07/24 11:35:31;;;;;;;;;;;29.50;99.90;;;;;;5045909;28;19925;-71
2022/07/24 11:37:59;;;;;;;;;;;29.50;99.90;;;;;;5025853;28;19929;-71
2022/07/24 11:40:26;;;;;;;;;;;29.30;99.90;;;;;;5045492;28;19933;-71
2022/07/24 11:42:57;;;;;;;;;;;29.80;99.90;;;;;;5020876;28;19933;-71
2022/07/24 11:45:24;;;;;;;;;;;31.30;99.90;;;;;;5048367;28;19969;-71
2022/07/24 11:47:54;;;;;;;;;;;32.60;99.90;;;;;;5028269;28;20355;-72
2022/07/24 11:50:22;;;;;;;;;;;33.40;99.90;;;;;;5031850;28;19925;-71
2022/07/24 11:52:49;;;;;;;;;;;33.50;99.90;;;;;;5031241;28;19929;-71
2022/07/24 11:55:16;;;;;;;;;;;34.00;99.90;;;;;;5027602;28;19925;-71
2022/07/24 11:57:44;;;;;;;;;;;35.10;99.90;;;;;;5026744;28;20289;-72
2022/07/24 12:00:12;;;;;;;;;;;35.50;99.90;;;;;;5027837;28;20393;-71
2022/07/24 12:02:43;;;;;;;;;;;37.00;99.90;;;;;;5038834;28;19925;-72
2022/07/24 12:05:11;;;;;;;;;;;37.70;99.90;;;;;;5030304;28;19925;-72
2022/07/24 12:07:38;;;;;;;;;;;37.80;99.90;;;;;;5032258;28;19925;-72
2022/07/24 12:10:05;;;;;;;;;;;37.80;99.90;;;;;;5028688;28;20024;-72
2022/07/24 12:12:33;;;;;;;;;;;38.20;99.90;;;;;;5042372;28;20354;-72
2022/07/24 12:15:04;;;;;;;;;;;38.50;99.90;;;;;;5039960;28;19925;-72
2022/07/24 12:17:31;;;;;;;;;;;38.00;99.90;;;;;;5026434;28;19925;-72
2022/07/24 12:19:58;;;;;;;;;;;37.80;99.90;;;;;;5049553;28;19925;-72
2022/07/24 12:22:27;;;;;;;;;;;37.10;99.90;;;;;;5029767;28;19986;-72
2022/07/24 12:24:57;;;;;;;;;;;36.80;99.90;;;;;;5030436;28;20355;-72
2022/07/24 12:27:34;;;;;;;;;;;37.90;99.90;;;;;;5039914;28;19979;-72
2022/07/24 12:30:01;;;;;;;;;;;38.20;99.60;;;;;;5017565;28;19925;-72
2022/07/24 12:32:28;;;;;;;;;;;37.80;99.60;;;;;;5046343;28;19925;-72
2022/07/24 12:34:54;;;;;;;;;;;37.50;99.60;;;;;;5042788;28;19925;-73
2022/07/24 12:37:22;;;;;;;;;;;39.00;99.70;;;;;;5048421;28;19933;-72
2022/07/24 12:39:52;;;;;;;;;;;39.60;99.20;;;;;;5030067;28;19936;-72
2022/07/24 12:42:19;;;;;;;;;;;39.30;98.30;;;;;;5026185;28;19925;-72
2022/07/24 12:44:46;;;;;;;;;;;37.90;98.10;;;;;;5027655;28;19936;-72
2022/07/24 12:47:13;;;;;;;;;;;37.90;98.40;;;;;;5044446;28;20440;-72
2022/07/24 12:49:43;;;;;;;;;;;37.90;98.50;;;;;;5025347;28;20422;-72
2022/07/24 12:52:20;;;;;;;;;;;38.40;98.70;;;;;;5029893;28;20390;-72
2022/07/24 12:54:48;;;;;;;;;;;39.10;98.90;;;;;;5044487;28;19929;-73
2022/07/24 12:57:16;;;;;;;;;;;40.20;98.10;;;;;;5028115;28;19925;-73
2022/07/24 12:59:44;;;;;;;;;;;41.20;97.80;;;;;;5045622;28;19924;-73
2022/07/24 13:02:11;;;;;;;;;;;41.50;97.30;;;;;;5027878;28;19925;-73
2022/07/24 13:04:41;;;;;;;;;;;40.50;96.60;;;;;;5030391;28;19925;-73
2022/07/24 13:07:08;;;;;;;;;;;40.30;96.70;;;;;;5026299;28;19937;-72
2022/07/24 13:09:36;;;;;;;;;;;40.50;96.70;;;;;;5026485;28;19991;-72
2022/07/24 13:12:03;;;;;;;;;;;40.40;97.10;;;;;;5036391;28;19932;-73
2022/07/24 13:14:31;;;;;;;;;;;41.20;97.20;;;;;;5035956;28;19925;-73
2022/07/24 13:17:02;;;;;;;;;;;40.80;95.40;;;;;;5044741;28;19933;-73
2022/07/24 13:19:29;;;;;;;;;;;40.60;96.00;;;;;;5025500;28;19925;-72
2022/07/24 13:21:55;;;;;;;;;;;40.90;96.00;;;;;;5030402;28;19928;-73
2022/07/24 13:24:22;;;;;;;;;;;40.80;95.80;;;;;;5029436;28;19970;-73
2022/07/24 13:26:49;;;;;;;;;;;41.70;95.60;;;;;;5027761;28;20465;-72
2022/07/24 13:29:16;;;;;;;;;;;40.50;94.80;;;;;;5020700;28;20396;-73
2022/07/24 13:31:44;;;;;;;;;;;39.70;95.70;;;;;;5016122;28;19933;-73
2022/07/24 13:34:11;;;;;;;;;;;39.50;95.20;;;;;;5026968;28;19932;-73
2022/07/24 13:36:38;;;;;;;;;;;39.20;95.70;;;;;;5030510;28;19929;-73
2022/07/24 13:39:06;;;;;;;;;;;40.00;95.90;;;;;;5029102;28;19925;-73
2022/07/24 13:41:32;;;;;;;;;;;40.60;95.90;;;;;;5027769;28;19929;-73
2022/07/24 13:43:59;;;;;;;;;;;39.90;95.10;;;;;;5025845;28;19968;-73
2022/07/24 13:46:26;;;;;;;;;;;40.80;95.10;;;;;;5027394;28;19936;-73
2022/07/24 13:48:54;;;;;;;;;;;41.70;95.00;;;;;;5040523;28;19932;-73
2022/07/24 13:51:21;;;;;;;;;;;42.60;95.20;;;;;;5046727;28;20270;-73
2022/07/24 13:53:48;;;;;;;;;;;42.70;94.10;;;;;;5026613;28;19925;-73
2022/07/24 13:56:15;;;;;;;;;;;43.10;94.20;;;;;;5042936;28;19979;-72
2022/07/24 13:58:43;;;;;;;;;;;43.60;94.50;;;;;;5012504;28;19929;-73
2022/07/24 14:01:10;;;;;;;;;;;44.20;93.90;;;;;;5043306;28;19925;-73
2022/07/24 14:03:39;;;;;;;;;;;44.20;93.50;;;;;;5033643;28;19925;-75
2022/07/24 14:06:07;;;;;;;;;;;44.40;93.30;;;;;;5029967;28;19960;-74
2022/07/24 14:08:34;;;;;;;;;;;44.20;93.10;;;;;;5037503;28;19933;-74
2022/07/24 14:11:01;;;;;;;;;;;44.30;93.20;;;;;;5033395;28;20343;-73
2022/07/24 14:13:28;;;;;;;;;;;44.90;93.00;;;;;;5028119;28;20351;-73
2022/07/24 14:15:54;;;;;;;;;;;44.40;92.60;;;;;;5029593;28;19931;-73
2022/07/24 14:18:22;;;;;;;;;;;43.50;93.30;;;;;;5045894;28;19925;-72